createdAt,value
2023-03-12T00:03:17.874Z,-0.80
2023-03-12T00:05:45.753Z,-1.10
2023-03-12T00:08:13.516Z,-1.20
2023-03-12T00:10:41.180Z,-1.30
2023-03-12T00:13:08.791Z,-1.20
2023-03-12T00:15:39.629Z,-1.10
2023-03-12T00:40:15.792Z,-1.30
2023-03-12T00:42:42.606Z,-1.30
2023-03-12T00:45:09.722Z,-1.40
2023-03-12T00:47:36.862Z,-1.50
2023-03-12T00:50:06.827Z,-1.50
2023-03-12T00:52:33.572Z,-1.50
2023-03-12T00:55:00.332Z,-1.30
2023-03-12T00:57:30.179Z,-1.10
2023-03-12T01:07:18.655Z,-1.00
2023-03-12T01:14:39.809Z,-1.40
2023-03-12T01:22:00.945Z,-1.60
2023-03-12T01:24:27.808Z,-1.50
2023-03-12T01:31:49.336Z,-1.30
2023-03-12T01:34:16.116Z,-1.20
2023-03-12T01:44:06.103Z,-1.20
2023-03-12T01:46:43.165Z,-1.30
2023-03-12T01:49:16.249Z,-1.30
2023-03-12T01:52:06.228Z,-1.40
2023-03-12T01:54:54.722Z,-1.60
2023-03-12T01:57:25.834Z,-1.60
2023-03-12T01:59:59.067Z,-1.60
2023-03-12T02:02:28.774Z,-1.60
2023-03-12T02:05:19.378Z,-1.70
2023-03-12T02:07:47.082Z,-1.80
2023-03-12T02:10:15.165Z,-1.80
2023-03-12T02:15:09.529Z,-1.80
2023-03-12T02:17:37.150Z,-1.80
2023-03-12T02:20:14.063Z,-1.70
2023-03-12T02:22:46.325Z,-1.70
2023-03-12T02:25:36.682Z,-1.60
2023-03-12T02:28:07.226Z,-1.60
2023-03-12T02:30:34.864Z,-1.70
2023-03-12T02:33:06.101Z,-1.80
2023-03-12T02:35:33.196Z,-1.90
2023-03-12T02:42:55.537Z,-2.20
2023-03-12T02:45:24.978Z,-2.30
2023-03-12T02:52:46.006Z,-2.10
2023-03-12T03:00:14.585Z,-1.90
2023-03-12T03:02:42.563Z,-1.90
2023-03-12T03:05:12.857Z,-1.80
2023-03-12T03:10:09.705Z,-1.90
2023-03-12T03:12:37.025Z,-1.90
2023-03-12T03:15:07.470Z,-2.00
2023-03-12T03:27:22.962Z,-1.60
2023-03-12T03:32:19.872Z,-1.50
2023-03-12T03:34:46.919Z,-1.50
2023-03-12T03:39:40.930Z,-1.40
2023-03-12T03:42:07.933Z,-1.40
2023-03-12T03:47:02.497Z,-1.30
2023-03-12T03:59:20.559Z,-1.20
2023-03-12T04:04:14.524Z,-1.20
2023-03-12T04:06:41.354Z,-1.30
2023-03-12T04:11:35.445Z,-1.30
2023-03-12T04:31:12.635Z,-1.20
2023-03-12T04:33:42.999Z,-1.20
2023-03-12T04:36:09.967Z,-1.20
2023-03-12T04:38:36.938Z,-1.30
2023-03-12T04:41:12.901Z,-1.30
2023-03-12T04:43:40.178Z,-1.20
2023-03-12T04:46:07.778Z,-1.30
2023-03-12T04:48:36.057Z,-1.30
2023-03-12T04:51:04.319Z,-1.30
2023-03-12T04:53:34.555Z,-1.20
2023-03-12T05:08:22.788Z,-1.10
2023-03-12T05:10:49.941Z,-1.10
2023-03-12T05:13:18.959Z,-1.00
2023-03-12T05:15:46.960Z,-1.00
2023-03-12T05:18:13.790Z,-1.00
2023-03-12T05:20:43.106Z,-1.00
2023-03-12T05:25:42.565Z,-1.00
2023-03-12T05:35:31.372Z,-0.90
2023-03-12T05:50:16.789Z,-0.90
2023-03-12T05:57:37.899Z,-0.70
2023-03-12T06:00:05.770Z,-0.70
2023-03-12T06:04:59.847Z,-0.70
2023-03-12T06:07:26.687Z,-0.70
2023-03-12T06:19:44.919Z,-0.60
2023-03-12T06:39:27.491Z,-0.40
2023-03-12T06:44:22.096Z,-0.20
2023-03-12T06:46:48.948Z,-0.20
2023-03-12T06:54:10.225Z,0.10
2023-03-12T06:59:06.094Z,0.50
2023-03-12T07:08:54.556Z,1.40
2023-03-12T07:21:22.704Z,1.80
2023-03-12T07:23:53.527Z,1.90
2023-03-12T07:26:20.479Z,1.80
2023-03-12T07:36:09.434Z,2.10
2023-03-12T07:43:30.783Z,2.20
2023-03-12T07:53:19.158Z,2.30
2023-03-12T07:55:47.932Z,2.20
2023-03-12T07:58:16.325Z,2.20
2023-03-12T08:00:43.401Z,2.20
2023-03-12T08:08:05.781Z,2.40
2023-03-12T08:22:48.666Z,2.60
2023-03-12T08:30:12.736Z,2.90
2023-03-12T08:32:43.069Z,2.90
2023-03-12T08:35:10.206Z,2.90
2023-03-12T08:40:13.868Z,3.00
2023-03-12T08:42:42.718Z,3.00
2023-03-12T08:45:11.421Z,3.00
2023-03-12T08:47:41.540Z,3.00
2023-03-12T08:50:13.340Z,3.10
2023-03-12T08:55:07.510Z,3.40
2023-03-12T09:00:01.931Z,3.40
2023-03-12T09:04:55.870Z,3.40
2023-03-12T09:07:22.792Z,3.40
2023-03-12T09:12:16.824Z,3.40
2023-03-12T09:17:30.746Z,3.40
2023-03-12T09:19:57.549Z,3.50
2023-03-12T09:22:24.419Z,3.40
2023-03-12T09:24:51.300Z,3.40
2023-03-12T09:27:18.016Z,3.40
2023-03-12T09:29:57.228Z,3.40
2023-03-12T09:32:27.604Z,3.20
2023-03-12T09:39:52.240Z,2.90
2023-03-12T09:42:32.725Z,2.90
2023-03-12T09:45:04.562Z,2.80
2023-03-12T09:47:35.464Z,2.70
2023-03-12T09:50:10.924Z,2.70
2023-03-12T09:52:48.773Z,2.60
2023-03-12T09:55:18.781Z,2.50
2023-03-12T09:57:48.070Z,2.50
2023-03-12T10:00:21.504Z,2.60
2023-03-12T10:03:29.960Z,2.70
2023-03-12T10:06:08.729Z,2.50
2023-03-12T10:08:46.440Z,2.40
2023-03-12T10:11:19.172Z,2.40
2023-03-12T10:14:23.752Z,2.40
2023-03-12T10:16:59.953Z,2.50
2023-03-12T10:19:51.662Z,2.50
2023-03-12T10:22:48.915Z,2.60
2023-03-12T10:30:19.467Z,2.60
2023-03-12T10:32:52.922Z,2.60
2023-03-12T10:35:22.496Z,2.50
2023-03-12T10:37:56.740Z,2.50
2023-03-12T10:40:29.832Z,2.50
2023-03-12T10:42:57.067Z,2.60
2023-03-12T10:45:46.047Z,2.60
2023-03-12T10:48:20.539Z,2.60
2023-03-12T10:51:00.834Z,2.50
2023-03-12T10:53:30.440Z,2.50
2023-03-12T10:56:00.185Z,2.60
2023-03-12T10:58:31.174Z,2.70
2023-03-12T11:01:01.133Z,2.70
2023-03-12T11:03:29.208Z,2.70
2023-03-12T11:06:01.317Z,2.60
2023-03-12T11:08:34.234Z,2.50
2023-03-12T11:11:03.489Z,2.40
2023-03-12T11:13:39.476Z,2.40
2023-03-12T11:16:18.756Z,2.40
2023-03-12T11:18:54.471Z,2.40
2023-03-12T11:21:21.314Z,2.40
2023-03-12T11:24:08.433Z,2.40
2023-03-12T11:26:51.012Z,2.40
2023-03-12T11:29:33.099Z,2.40
2023-03-12T11:32:12.045Z,2.50
2023-03-12T11:34:40.036Z,2.50
2023-03-12T11:37:11.123Z,2.50
2023-03-12T11:39:58.880Z,2.50
2023-03-12T11:42:41.494Z,2.50
2023-03-12T11:45:24.618Z,2.50
2023-03-12T11:48:23.085Z,2.50
2023-03-12T11:50:52.902Z,2.60
2023-03-12T11:53:48.448Z,2.60
2023-03-12T11:56:27.608Z,2.50
2023-03-12T11:59:06.633Z,2.60
2023-03-12T12:01:54.472Z,2.50
2023-03-12T12:04:33.275Z,2.60
2023-03-12T12:07:14.221Z,2.60
2023-03-12T12:09:58.952Z,2.60
2023-03-12T12:12:46.014Z,2.70
2023-03-12T12:15:15.758Z,2.70
2023-03-12T12:17:57.083Z,2.70
2023-03-12T12:20:42.477Z,2.80
2023-03-12T12:23:22.721Z,2.80
2023-03-12T12:26:13.058Z,2.80
2023-03-12T12:28:54.171Z,2.80
2023-03-12T12:31:41.657Z,2.90
2023-03-12T12:34:14.258Z,3.00
2023-03-12T12:36:46.478Z,3.10
2023-03-12T12:39:26.854Z,3.10
2023-03-12T12:41:57.186Z,3.20
2023-03-12T12:44:36.995Z,3.30
2023-03-12T12:47:06.847Z,3.40
2023-03-12T12:52:04.912Z,3.50
2023-03-12T12:54:51.850Z,3.50
2023-03-12T12:57:21.192Z,3.50
2023-03-12T13:00:26.136Z,3.50
2023-03-12T13:02:55.497Z,3.50
2023-03-12T13:05:37.159Z,3.50
2023-03-12T13:08:05.610Z,3.60
2023-03-12T13:10:35.381Z,3.60
2023-03-12T13:13:12.714Z,3.70
2023-03-12T13:15:43.790Z,3.70
2023-03-12T13:20:52.370Z,3.80
2023-03-12T13:23:55.408Z,3.80
2023-03-12T13:26:49.122Z,3.80
2023-03-12T13:29:46.186Z,3.90
2023-03-12T13:32:34.792Z,4.00
2023-03-12T13:35:27.413Z,4.00
2023-03-12T13:40:30.297Z,4.10
2023-03-12T13:43:30.344Z,4.10
2023-03-12T13:46:07.415Z,4.20
2023-03-12T13:48:36.387Z,4.30
2023-03-12T13:51:16.115Z,4.30
2023-03-12T13:53:48.304Z,4.40
2023-03-12T13:56:19.286Z,4.50
2023-03-12T13:59:13.701Z,4.50
2023-03-12T14:01:50.095Z,4.60
2023-03-12T14:04:29.297Z,4.60
2023-03-12T14:07:05.855Z,4.60
2023-03-12T14:09:40.271Z,4.70
2023-03-12T14:12:52.803Z,4.70
2023-03-12T14:15:49.656Z,4.80
2023-03-12T14:18:23.669Z,4.90
2023-03-12T14:20:55.941Z,4.90
2023-03-12T14:23:26.989Z,4.90
2023-03-12T14:26:06.701Z,5.00
2023-03-12T14:28:40.704Z,5.10
2023-03-12T14:31:23.913Z,5.20
2023-03-12T14:34:01.868Z,5.20
2023-03-12T14:37:16.689Z,5.30
2023-03-12T14:40:14.253Z,5.40
2023-03-12T14:45:12.482Z,5.50
2023-03-12T14:47:44.463Z,5.60
2023-03-12T14:50:26.087Z,5.60
2023-03-12T14:55:23.279Z,5.70
2023-03-12T14:58:02.564Z,5.70
2023-03-12T15:00:29.767Z,5.80
2023-03-12T15:02:59.776Z,5.80
2023-03-12T15:05:26.848Z,5.90
2023-03-12T15:08:00.881Z,5.90
2023-03-12T15:10:30.076Z,5.90
2023-03-12T15:12:59.766Z,6.00
2023-03-12T15:15:45.686Z,6.00
2023-03-12T15:18:26.650Z,6.00
2023-03-12T15:20:54.112Z,6.00
2023-03-12T15:23:22.654Z,6.10
2023-03-12T15:26:08.153Z,6.10
2023-03-12T15:28:35.053Z,6.10
2023-03-12T15:31:11.829Z,6.10
2023-03-12T15:33:39.996Z,6.20
2023-03-12T15:36:28.426Z,6.20
2023-03-12T15:39:03.068Z,6.30
2023-03-12T15:41:48.748Z,6.30
2023-03-12T15:44:21.718Z,6.30
2023-03-12T15:46:51.925Z,6.30
2023-03-12T15:49:27.038Z,6.40
2023-03-12T15:52:22.026Z,6.40
2023-03-12T15:55:07.590Z,6.50
2023-03-12T15:57:36.889Z,6.50
2023-03-12T16:00:17.625Z,6.60
2023-03-12T16:03:05.999Z,6.70
2023-03-12T16:05:38.451Z,6.80
2023-03-12T16:08:11.570Z,6.80
2023-03-12T16:10:39.550Z,6.90
2023-03-12T16:13:06.409Z,7.00
2023-03-12T16:15:37.001Z,7.10
2023-03-12T16:18:04.540Z,7.20
2023-03-12T16:20:31.392Z,7.20
2023-03-12T16:22:58.218Z,7.30
2023-03-12T16:25:25.842Z,7.30
2023-03-12T16:27:56.730Z,7.40
2023-03-12T16:30:23.754Z,7.40
2023-03-12T16:32:50.643Z,7.40
2023-03-12T16:35:19.692Z,7.40
2023-03-12T16:37:47.125Z,7.40
2023-03-12T16:40:24.032Z,7.40
2023-03-12T16:43:03.555Z,7.50
2023-03-12T16:45:33.743Z,7.50
2023-03-12T16:48:03.170Z,7.50
2023-03-12T16:50:30.805Z,7.50
2023-03-12T16:52:58.763Z,7.50
2023-03-12T16:55:30.329Z,7.50
2023-03-12T16:58:00.481Z,7.50
2023-03-12T17:00:30.225Z,7.70
2023-03-12T17:02:58.085Z,7.70
2023-03-12T17:05:26.909Z,7.70
2023-03-12T17:07:54.139Z,7.70
2023-03-12T17:10:22.275Z,7.70
2023-03-12T17:12:49.579Z,7.80
2023-03-12T17:15:25.890Z,7.80
2023-03-12T17:17:55.608Z,7.80
2023-03-12T17:20:24.411Z,7.90
2023-03-12T17:22:51.237Z,7.90
2023-03-12T17:25:28.356Z,8.00
2023-03-12T17:27:58.078Z,8.00
2023-03-12T17:30:29.442Z,8.00
2023-03-12T17:33:11.709Z,8.00
2023-03-12T17:35:39.895Z,8.00
2023-03-12T17:38:07.684Z,8.00
2023-03-12T17:40:36.005Z,8.00
2023-03-12T17:43:02.808Z,8.00
2023-03-12T17:45:29.611Z,8.00
2023-03-12T17:47:56.405Z,8.00
2023-03-12T17:50:23.247Z,8.00
2023-03-12T17:52:50.753Z,8.00
2023-03-12T17:55:17.757Z,8.00
2023-03-12T17:57:44.785Z,8.00
2023-03-12T18:00:13.177Z,8.00
2023-03-12T18:02:41.426Z,8.00
2023-03-12T18:05:10.834Z,8.00
2023-03-12T18:07:38.322Z,8.00
2023-03-12T18:10:07.617Z,8.00
2023-03-12T18:12:34.971Z,8.00
2023-03-12T18:17:29.211Z,8.00
2023-03-12T18:19:56.270Z,8.00
2023-03-12T18:22:24.530Z,7.90
2023-03-12T18:24:51.570Z,7.90
2023-03-12T18:29:45.593Z,8.00
2023-03-12T18:32:12.636Z,8.00
2023-03-12T18:34:42.346Z,8.00
2023-03-12T18:37:09.152Z,8.00
2023-03-12T18:39:35.928Z,8.00
2023-03-12T18:42:02.691Z,8.00
2023-03-12T18:44:29.578Z,8.00
2023-03-12T18:46:56.456Z,8.00
2023-03-12T18:49:23.386Z,8.00
2023-03-12T18:51:54.537Z,8.10
2023-03-12T18:54:23.576Z,8.10
2023-03-12T18:56:51.400Z,8.10
2023-03-12T19:01:45.471Z,8.00
2023-03-12T19:04:16.192Z,8.00
2023-03-12T19:06:50.765Z,8.00
2023-03-12T19:09:20.587Z,8.00
2023-03-12T19:11:49.893Z,8.10
2023-03-12T19:14:18.211Z,8.10
2023-03-12T19:16:45.022Z,8.10
2023-03-12T19:19:11.994Z,8.10
2023-03-12T19:24:06.012Z,8.00
2023-03-12T19:26:32.862Z,8.00
2023-03-12T19:28:59.655Z,8.00
2023-03-12T19:31:26.629Z,8.00
2023-03-12T19:33:53.419Z,8.10
2023-03-12T19:36:20.543Z,8.00
2023-03-12T19:38:47.362Z,8.00
2023-03-12T19:41:15.333Z,8.10
2023-03-12T19:43:43.277Z,8.10
2023-03-12T19:46:10.207Z,8.10
2023-03-12T19:48:39.126Z,8.20
2023-03-12T19:51:09.205Z,8.30
2023-03-12T19:53:36.770Z,8.30
2023-03-12T19:56:04.886Z,8.30
2023-03-12T19:58:33.827Z,8.30
2023-03-12T20:01:02.411Z,8.30
2023-03-12T20:03:30.796Z,8.30
2023-03-12T20:06:00.029Z,8.30
2023-03-12T20:08:30.503Z,8.20
2023-03-12T20:11:05.615Z,8.20
2023-03-12T20:13:34.322Z,8.20
2023-03-12T20:16:02.161Z,8.20
2023-03-12T20:18:29.260Z,8.20
2023-03-12T20:20:56.440Z,8.20
2023-03-12T20:23:23.347Z,8.20
2023-03-12T20:25:51.034Z,8.20
2023-03-12T20:28:18.096Z,8.30
2023-03-12T20:30:45.172Z,8.40
2023-03-12T20:35:39.632Z,8.30
2023-03-12T20:38:06.795Z,8.30
2023-03-12T20:40:33.928Z,8.30
2023-03-12T20:43:04.702Z,8.30
2023-03-12T20:45:33.315Z,8.40
2023-03-12T20:48:00.588Z,8.40
2023-03-12T20:50:28.282Z,8.40
2023-03-12T20:52:55.120Z,8.40
2023-03-12T20:55:22.000Z,8.50
2023-03-12T20:57:48.885Z,8.50
2023-03-12T21:00:15.997Z,8.50
2023-03-12T21:05:11.412Z,8.50
2023-03-12T21:07:38.340Z,8.60
2023-03-12T21:10:05.942Z,8.70
2023-03-12T21:15:06.172Z,8.80
2023-03-12T21:17:34.569Z,8.80
2023-03-12T21:20:03.233Z,8.80
2023-03-12T21:22:31.565Z,8.70
2023-03-12T21:24:58.667Z,8.70
2023-03-12T21:27:25.441Z,8.70
2023-03-12T21:29:53.559Z,8.70
2023-03-12T21:32:21.940Z,8.70
2023-03-12T21:34:49.263Z,8.70
2023-03-12T21:37:16.873Z,8.70
2023-03-12T21:39:43.689Z,8.60
2023-03-12T21:42:10.496Z,8.60
2023-03-12T21:44:38.017Z,8.60
2023-03-12T21:47:05.234Z,8.70
2023-03-12T21:49:35.933Z,8.70
2023-03-12T21:52:03.865Z,8.70
2023-03-12T21:54:32.862Z,8.70
2023-03-12T21:57:02.807Z,8.70
2023-03-12T21:59:30.468Z,8.80
2023-03-12T22:04:25.244Z,8.90
2023-03-12T22:06:52.194Z,8.90
2023-03-12T22:09:19.410Z,8.90
2023-03-12T22:11:46.120Z,8.90
2023-03-12T22:14:12.953Z,8.90
2023-03-12T22:16:39.768Z,9.00
2023-03-12T22:19:07.856Z,9.00
2023-03-12T22:24:02.847Z,9.00
2023-03-12T22:26:29.929Z,9.00
2023-03-12T22:28:58.071Z,9.00
2023-03-12T22:31:27.009Z,9.00
2023-03-12T22:33:53.795Z,9.00
2023-03-12T22:36:21.053Z,9.00
2023-03-12T22:38:48.229Z,9.00
2023-03-12T22:41:26.587Z,9.00
2023-03-12T22:43:55.795Z,9.00
2023-03-12T22:46:25.001Z,8.90
2023-03-12T22:48:54.108Z,9.00
2023-03-12T22:51:21.003Z,8.90
2023-03-12T22:53:47.726Z,8.90
2023-03-12T22:56:14.790Z,8.90
2023-03-12T22:58:41.831Z,8.80
2023-03-12T23:01:17.037Z,8.80
2023-03-12T23:03:45.010Z,8.80
2023-03-12T23:06:14.014Z,8.80
2023-03-12T23:08:41.251Z,8.80
2023-03-12T23:11:09.490Z,8.80
2023-03-12T23:13:40.154Z,8.80
2023-03-12T23:16:12.563Z,8.70
2023-03-12T23:18:39.543Z,8.70
2023-03-12T23:21:08.959Z,8.60
2023-03-12T23:23:37.428Z,8.60
2023-03-12T23:26:04.345Z,8.60
2023-03-12T23:28:32.070Z,8.60
2023-03-12T23:31:05.005Z,8.60
2023-03-12T23:33:33.438Z,8.60
2023-03-12T23:36:06.545Z,8.70
2023-03-12T23:38:37.305Z,8.70
2023-03-12T23:41:11.297Z,8.70
2023-03-12T23:43:38.390Z,8.70
2023-03-12T23:46:07.085Z,8.70
2023-03-12T23:48:35.488Z,8.70
2023-03-12T23:51:07.019Z,8.70
2023-03-12T23:53:34.953Z,8.70
2023-03-12T23:56:03.885Z,8.70
2023-03-12T23:58:30.745Z,8.70
